Terminal Aerodrome Forecast
Issued by NWS

Home | Current Version | Previous Version | Text Only | Print | Product List | Glossary On
Versions: 1 2 3 4 5 6 7 8 9 10 11 12 13
000
FTUS44 KBMX 250955 AAA
TAFMGM
TAF AMD
KMGM 250955Z 2510/2606 19007KT P6SM SHRA BKN009 OVC012
     FM251100 19007KT 3SM TSRA OVC010CB
      TEMPO 2511/2513 1/2SM +TSRA OVC010CB
     FM251300 25010KT P6SM SHRA VCTS BKN025CB BKN100
     FM260200 22008KT P6SM BKN150=

USA.gov is the U.S. government's official web portal to all federal, state and local government web resources and services.